sensor_id;sensor_type;location;lat;lon;timestamp;P1;durP1;ratioP1;P2;durP2;ratioP2
33160;SDS011;19522;45.656;11.302;2024-02-26T00:00:33;15.68;;;9.75;;
33160;SDS011;19522;45.656;11.302;2024-02-26T00:03:00;13.85;;;9.80;;
33160;SDS011;19522;45.656;11.302;2024-02-26T00:05:26;13.43;;;9.13;;
33160;SDS011;19522;45.656;11.302;2024-02-26T00:07:51;11.93;;;9.02;;
33160;SDS011;19522;45.656;11.302;2024-02-26T00:10:17;14.10;;;9.90;;
33160;SDS011;19522;45.656;11.302;2024-02-26T00:12:43;11.15;;;8.40;;
33160;SDS011;19522;45.656;11.302;2024-02-26T00:15:08;12.43;;;8.63;;
33160;SDS011;19522;45.656;11.302;2024-02-26T00:17:34;13.90;;;8.52;;
33160;SDS011;19522;45.656;11.302;2024-02-26T00:20:01;12.93;;;8.70;;
33160;SDS011;19522;45.656;11.302;2024-02-26T00:22:29;12.27;;;8.40;;
33160;SDS011;19522;45.656;11.302;2024-02-26T00:24:55;13.07;;;8.63;;
33160;SDS011;19522;45.656;11.302;2024-02-26T00:27:21;15.02;;;8.57;;
33160;SDS011;19522;45.656;11.302;2024-02-26T00:29:46;13.60;;;7.78;;
33160;SDS011;19522;45.656;11.302;2024-02-26T00:32:11;11.65;;;8.13;;
33160;SDS011;19522;45.656;11.302;2024-02-26T00:34:37;12.07;;;8.23;;
33160;SDS011;19522;45.656;11.302;2024-02-26T00:37:03;11.77;;;7.75;;
33160;SDS011;19522;45.656;11.302;2024-02-26T00:39:28;11.77;;;8.35;;
33160;SDS011;19522;45.656;11.302;2024-02-26T00:41:54;12.75;;;9.07;;
33160;SDS011;19522;45.656;11.302;2024-02-26T00:44:19;13.95;;;9.43;;
33160;SDS011;19522;45.656;11.302;2024-02-26T00:46:45;12.77;;;8.75;;
33160;SDS011;19522;45.656;11.302;2024-02-26T00:49:13;13.43;;;8.77;;
33160;SDS011;19522;45.656;11.302;2024-02-26T00:51:39;12.23;;;7.88;;
33160;SDS011;19522;45.656;11.302;2024-02-26T00:54:04;12.40;;;8.43;;
33160;SDS011;19522;45.656;11.302;2024-02-26T00:56:30;11.20;;;8.43;;
33160;SDS011;19522;45.656;11.302;2024-02-26T00:58:55;10.77;;;8.20;;
33160;SDS011;19522;45.656;11.302;2024-02-26T01:01:21;11.50;;;8.40;;
33160;SDS011;19522;45.656;11.302;2024-02-26T01:03:46;12.27;;;8.07;;
33160;SDS011;19522;45.656;11.302;2024-02-26T01:06:12;12.60;;;8.32;;
33160;SDS011;19522;45.656;11.302;2024-02-26T01:08:37;10.93;;;7.93;;
33160;SDS011;19522;45.656;11.302;2024-02-26T01:11:04;13.10;;;8.15;;
33160;SDS011;19522;45.656;11.302;2024-02-26T01:13:29;11.98;;;8.60;;
33160;SDS011;19522;45.656;11.302;2024-02-26T01:15:55;13.50;;;9.25;;
33160;SDS011;19522;45.656;11.302;2024-02-26T01:18:20;11.82;;;8.68;;
33160;SDS011;19522;45.656;11.302;2024-02-26T01:20:46;14.70;;;8.57;;
33160;SDS011;19522;45.656;11.302;2024-02-26T01:23:12;11.38;;;8.50;;
33160;SDS011;19522;45.656;11.302;2024-02-26T01:25:37;12.40;;;8.73;;
33160;SDS011;19522;45.656;11.302;2024-02-26T01:28:04;12.35;;;8.52;;
33160;SDS011;19522;45.656;11.302;2024-02-26T01:30:30;12.38;;;8.40;;
33160;SDS011;19522;45.656;11.302;2024-02-26T01:32:56;11.30;;;8.40;;
33160;SDS011;19522;45.656;11.302;2024-02-26T01:35:22;13.20;;;9.27;;
33160;SDS011;19522;45.656;11.302;2024-02-26T01:37:47;12.77;;;9.15;;
33160;SDS011;19522;45.656;11.302;2024-02-26T01:40:13;12.13;;;8.15;;
33160;SDS011;19522;45.656;11.302;2024-02-26T01:42:42;11.60;;;9.05;;
33160;SDS011;19522;45.656;11.302;2024-02-26T01:45:18;17.33;;;8.60;;
33160;SDS011;19522;45.656;11.302;2024-02-26T01:47:52;13.00;;;9.00;;
33160;SDS011;19522;45.656;11.302;2024-02-26T01:50:19;13.32;;;9.25;;
33160;SDS011;19522;45.656;11.302;2024-02-26T01:52:48;12.30;;;8.27;;
33160;SDS011;19522;45.656;11.302;2024-02-26T01:55:15;10.98;;;8.25;;
33160;SDS011;19522;45.656;11.302;2024-02-26T01:57:42;13.40;;;8.85;;
33160;SDS011;19522;45.656;11.302;2024-02-26T02:00:09;10.52;;;8.85;;
33160;SDS011;19522;45.656;11.302;2024-02-26T02:02:39;12.45;;;8.85;;
33160;SDS011;19522;45.656;11.302;2024-02-26T02:05:12;12.00;;;7.88;;
33160;SDS011;19522;45.656;11.302;2024-02-26T02:07:39;13.25;;;8.02;;
33160;SDS011;19522;45.656;11.302;2024-02-26T02:10:06;11.60;;;8.07;;
33160;SDS011;19522;45.656;11.302;2024-02-26T02:12:32;11.82;;;8.48;;
33160;SDS011;19522;45.656;11.302;2024-02-26T02:14:59;10.13;;;7.78;;
33160;SDS011;19522;45.656;11.302;2024-02-26T02:17:26;11.57;;;8.65;;
33160;SDS011;19522;45.656;11.302;2024-02-26T02:19:52;16.23;;;8.05;;
33160;SDS011;19522;45.656;11.302;2024-02-26T02:22:18;11.15;;;8.82;;
33160;SDS011;19522;45.656;11.302;2024-02-26T02:24:44;15.68;;;9.75;;
33160;SDS011;19522;45.656;11.302;2024-02-26T02:27:10;14.07;;;10.57;;
33160;SDS011;19522;45.656;11.302;2024-02-26T02:29:36;13.52;;;9.95;;
33160;SDS011;19522;45.656;11.302;2024-02-26T02:32:02;13.23;;;10.13;;
33160;SDS011;19522;45.656;11.302;2024-02-26T02:34:29;12.63;;;10.43;;
33160;SDS011;19522;45.656;11.302;2024-02-26T02:36:56;15.07;;;11.00;;
33160;SDS011;19522;45.656;11.302;2024-02-26T02:39:22;17.70;;;12.35;;
33160;SDS011;19522;45.656;11.302;2024-02-26T02:41:48;17.80;;;12.40;;
33160;SDS011;19522;45.656;11.302;2024-02-26T02:44:13;16.20;;;13.27;;
33160;SDS011;19522;45.656;11.302;2024-02-26T02:46:39;18.88;;;13.02;;
33160;SDS011;19522;45.656;11.302;2024-02-26T02:49:08;16.42;;;12.40;;
33160;SDS011;19522;45.656;11.302;2024-02-26T02:51:34;18.92;;;12.00;;
33160;SDS011;19522;45.656;11.302;2024-02-26T02:54:00;14.32;;;12.00;;
33160;SDS011;19522;45.656;11.302;2024-02-26T02:56:26;18.52;;;11.55;;
33160;SDS011;19522;45.656;11.302;2024-02-26T02:58:51;16.20;;;12.10;;
33160;SDS011;19522;45.656;11.302;2024-02-26T03:01:17;17.52;;;12.50;;
33160;SDS011;19522;45.656;11.302;2024-02-26T03:03:42;18.58;;;12.70;;
33160;SDS011;19522;45.656;11.302;2024-02-26T03:06:08;20.65;;;13.18;;
33160;SDS011;19522;45.656;11.302;2024-02-26T03:08:33;16.92;;;12.02;;
33160;SDS011;19522;45.656;11.302;2024-02-26T03:11:03;15.05;;;11.75;;
33160;SDS011;19522;45.656;11.302;2024-02-26T03:13:29;16.48;;;12.40;;
33160;SDS011;19522;45.656;11.302;2024-02-26T03:15:54;18.52;;;12.77;;
33160;SDS011;19522;45.656;11.302;2024-02-26T03:18:20;13.60;;;10.68;;
33160;SDS011;19522;45.656;11.302;2024-02-26T03:20:46;15.57;;;11.43;;
33160;SDS011;19522;45.656;11.302;2024-02-26T03:23:11;17.33;;;12.32;;
33160;SDS011;19522;45.656;11.302;2024-02-26T03:25:41;20.75;;;12.50;;
33160;SDS011;19522;45.656;11.302;2024-02-26T03:28:07;14.77;;;11.45;;
33160;SDS011;19522;45.656;11.302;2024-02-26T03:30:32;16.65;;;12.15;;
33160;SDS011;19522;45.656;11.302;2024-02-26T03:32:58;16.05;;;12.73;;
33160;SDS011;19522;45.656;11.302;2024-02-26T03:35:23;19.27;;;12.52;;
33160;SDS011;19522;45.656;11.302;2024-02-26T03:37:49;14.75;;;10.88;;
33160;SDS011;19522;45.656;11.302;2024-02-26T03:42:51;11.65;;;9.18;;
33160;SDS011;19522;45.656;11.302;2024-02-26T03:45:19;13.93;;;9.70;;
33160;SDS011;19522;45.656;11.302;2024-02-26T03:47:47;12.35;;;9.38;;
33160;SDS011;19522;45.656;11.302;2024-02-26T03:50:13;17.48;;;10.60;;
33160;SDS011;19522;45.656;11.302;2024-02-26T03:52:38;14.82;;;9.50;;
33160;SDS011;19522;45.656;11.302;2024-02-26T03:55:04;15.13;;;10.15;;
33160;SDS011;19522;45.656;11.302;2024-02-26T03:57:29;11.50;;;8.82;;
33160;SDS011;19522;45.656;11.302;2024-02-26T03:59:55;10.85;;;8.70;;
33160;SDS011;19522;45.656;11.302;2024-02-26T04:02:21;12.93;;;8.68;;
33160;SDS011;19522;45.656;11.302;2024-02-26T04:04:48;11.30;;;8.55;;
33160;SDS011;19522;45.656;11.302;2024-02-26T04:07:14;13.82;;;8.15;;
33160;SDS011;19522;45.656;11.302;2024-02-26T04:09:39;11.68;;;8.02;;
33160;SDS011;19522;45.656;11.302;2024-02-26T04:12:05;10.30;;;8.52;;
33160;SDS011;19522;45.656;11.302;2024-02-26T04:14:30;10.35;;;7.90;;
33160;SDS011;19522;45.656;11.302;2024-02-26T04:16:59;13.23;;;8.40;;
33160;SDS011;19522;45.656;11.302;2024-02-26T04:19:24;12.60;;;8.13;;
33160;SDS011;19522;45.656;11.302;2024-02-26T04:21:50;10.40;;;8.18;;
33160;SDS011;19522;45.656;11.302;2024-02-26T04:24:15;9.25;;;7.45;;
33160;SDS011;19522;45.656;11.302;2024-02-26T04:26:41;9.32;;;8.27;;
33160;SDS011;19522;45.656;11.302;2024-02-26T04:29:06;10.98;;;7.90;;
33160;SDS011;19522;45.656;11.302;2024-02-26T04:31:32;10.13;;;7.88;;
33160;SDS011;19522;45.656;11.302;2024-02-26T04:33:58;10.63;;;7.78;;
33160;SDS011;19522;45.656;11.302;2024-02-26T04:36:24;10.52;;;8.35;;
33160;SDS011;19522;45.656;11.302;2024-02-26T04:38:51;10.10;;;7.78;;
33160;SDS011;19522;45.656;11.302;2024-02-26T04:41:22;10.85;;;7.22;;
33160;SDS011;19522;45.656;11.302;2024-02-26T04:43:47;10.65;;;7.78;;
33160;SDS011;19522;45.656;11.302;2024-02-26T04:46:13;10.43;;;7.60;;
33160;SDS011;19522;45.656;11.302;2024-02-26T04:48:38;10.52;;;7.35;;
33160;SDS011;19522;45.656;11.302;2024-02-26T04:51:06;8.25;;;6.45;;
33160;SDS011;19522;45.656;11.302;2024-02-26T04:53:32;7.80;;;6.90;;
33160;SDS011;19522;45.656;11.302;2024-02-26T04:55:57;12.50;;;7.85;;
33160;SDS011;19522;45.656;11.302;2024-02-26T04:58:23;12.02;;;6.68;;
33160;SDS011;19522;45.656;11.302;2024-02-26T05:00:48;9.93;;;7.13;;
33160;SDS011;19522;45.656;11.302;2024-02-26T05:03:14;11.43;;;8.43;;
33160;SDS011;19522;45.656;11.302;2024-02-26T05:05:41;8.63;;;6.68;;
33160;SDS011;19522;45.656;11.302;2024-02-26T05:08:09;8.60;;;7.05;;
33160;SDS011;19522;45.656;11.302;2024-02-26T05:10:35;9.55;;;7.20;;
33160;SDS011;19522;45.656;11.302;2024-02-26T05:13:04;14.57;;;9.50;;
33160;SDS011;19522;45.656;11.302;2024-02-26T05:15:32;11.27;;;7.97;;
33160;SDS011;19522;45.656;11.302;2024-02-26T05:17:58;9.95;;;7.45;;
33160;SDS011;19522;45.656;11.302;2024-02-26T05:20:24;8.90;;;6.40;;
33160;SDS011;19522;45.656;11.302;2024-02-26T05:22:50;8.45;;;6.28;;
33160;SDS011;19522;45.656;11.302;2024-02-26T05:25:15;10.23;;;7.03;;
33160;SDS011;19522;45.656;11.302;2024-02-26T05:27:41;14.40;;;9.68;;
33160;SDS011;19522;45.656;11.302;2024-02-26T05:30:11;11.90;;;7.57;;
33160;SDS011;19522;45.656;11.302;2024-02-26T05:32:40;11.25;;;7.65;;
33160;SDS011;19522;45.656;11.302;2024-02-26T05:35:06;9.30;;;7.88;;
33160;SDS011;19522;45.656;11.302;2024-02-26T05:37:31;10.82;;;6.97;;
33160;SDS011;19522;45.656;11.302;2024-02-26T05:39:57;8.00;;;6.32;;
33160;SDS011;19522;45.656;11.302;2024-02-26T05:42:23;8.55;;;5.90;;
33160;SDS011;19522;45.656;11.302;2024-02-26T05:44:51;9.40;;;5.78;;
33160;SDS011;19522;45.656;11.302;2024-02-26T05:47:17;7.28;;;5.93;;
33160;SDS011;19522;45.656;11.302;2024-02-26T05:49:43;8.73;;;5.60;;
33160;SDS011;19522;45.656;11.302;2024-02-26T05:52:08;8.52;;;6.32;;
33160;SDS011;19522;45.656;11.302;2024-02-26T05:54:34;7.10;;;6.22;;
33160;SDS011;19522;45.656;11.302;2024-02-26T05:57:02;7.90;;;6.07;;
33160;SDS011;19522;45.656;11.302;2024-02-26T05:59:28;10.27;;;6.85;;
33160;SDS011;19522;45.656;11.302;2024-02-26T06:01:53;8.75;;;5.95;;
33160;SDS011;19522;45.656;11.302;2024-02-26T06:04:19;9.27;;;6.35;;
33160;SDS011;19522;45.656;11.302;2024-02-26T06:06:44;7.63;;;5.68;;
33160;SDS011;19522;45.656;11.302;2024-02-26T06:09:13;8.93;;;5.30;;
33160;SDS011;19522;45.656;11.302;2024-02-26T06:11:38;8.77;;;5.78;;
33160;SDS011;19522;45.656;11.302;2024-02-26T06:14:04;7.07;;;5.50;;
33160;SDS011;19522;45.656;11.302;2024-02-26T06:16:30;8.70;;;6.97;;
33160;SDS011;19522;45.656;11.302;2024-02-26T06:18:55;10.43;;;6.80;;
33160;SDS011;19522;45.656;11.302;2024-02-26T06:21:21;22.45;;;13.95;;
33160;SDS011;19522;45.656;11.302;2024-02-26T06:23:47;21.70;;;14.18;;
33160;SDS011;19522;45.656;11.302;2024-02-26T06:26:12;12.18;;;8.98;;
33160;SDS011;19522;45.656;11.302;2024-02-26T06:28:38;9.50;;;7.18;;
33160;SDS011;19522;45.656;11.302;2024-02-26T06:31:05;11.52;;;7.57;;
33160;SDS011;19522;45.656;11.302;2024-02-26T06:33:31;10.82;;;6.85;;
33160;SDS011;19522;45.656;11.302;2024-02-26T06:35:57;10.32;;;7.00;;
33160;SDS011;19522;45.656;11.302;2024-02-26T06:38:22;12.80;;;7.57;;
33160;SDS011;19522;45.656;11.302;2024-02-26T06:40:48;13.80;;;8.40;;
33160;SDS011;19522;45.656;11.302;2024-02-26T06:43:13;14.95;;;8.45;;
33160;SDS011;19522;45.656;11.302;2024-02-26T06:45:39;10.07;;;7.70;;
33160;SDS011;19522;45.656;11.302;2024-02-26T06:48:04;9.00;;;6.72;;
33160;SDS011;19522;45.656;11.302;2024-02-26T06:50:30;10.20;;;6.80;;
33160;SDS011;19522;45.656;11.302;2024-02-26T06:52:56;11.32;;;7.50;;
33160;SDS011;19522;45.656;11.302;2024-02-26T06:55:21;13.18;;;7.60;;
33160;SDS011;19522;45.656;11.302;2024-02-26T06:57:47;12.75;;;8.05;;
33160;SDS011;19522;45.656;11.302;2024-02-26T07:00:12;9.70;;;7.05;;
33160;SDS011;19522;45.656;11.302;2024-02-26T07:02:41;12.00;;;8.98;;
33160;SDS011;19522;45.656;11.302;2024-02-26T07:05:07;12.20;;;9.93;;
33160;SDS011;19522;45.656;11.302;2024-02-26T07:07:33;10.73;;;8.52;;
33160;SDS011;19522;45.656;11.302;2024-02-26T07:09:58;10.63;;;9.05;;
33160;SDS011;19522;45.656;11.302;2024-02-26T07:12:24;19.55;;;13.55;;
33160;SDS011;19522;45.656;11.302;2024-02-26T07:14:49;17.15;;;14.13;;
33160;SDS011;19522;45.656;11.302;2024-02-26T07:17:15;16.40;;;10.57;;
33160;SDS011;19522;45.656;11.302;2024-02-26T07:19:41;12.73;;;8.98;;
33160;SDS011;19522;45.656;11.302;2024-02-26T07:22:07;12.13;;;7.53;;
33160;SDS011;19522;45.656;11.302;2024-02-26T07:24:33;11.60;;;8.18;;
33160;SDS011;19522;45.656;11.302;2024-02-26T07:26:59;11.07;;;8.77;;
33160;SDS011;19522;45.656;11.302;2024-02-26T07:29:26;14.63;;;8.85;;
33160;SDS011;19522;45.656;11.302;2024-02-26T07:31:52;12.45;;;9.13;;
33160;SDS011;19522;45.656;11.302;2024-02-26T07:34:17;12.50;;;8.38;;
33160;SDS011;19522;45.656;11.302;2024-02-26T07:36:43;13.32;;;8.90;;
33160;SDS011;19522;45.656;11.302;2024-02-26T07:39:09;11.70;;;8.75;;
33160;SDS011;19522;45.656;11.302;2024-02-26T07:41:35;14.68;;;9.20;;
33160;SDS011;19522;45.656;11.302;2024-02-26T07:44:00;16.10;;;10.55;;
33160;SDS011;19522;45.656;11.302;2024-02-26T07:46:26;15.57;;;9.80;;
33160;SDS011;19522;45.656;11.302;2024-02-26T07:48:51;16.73;;;10.35;;
33160;SDS011;19522;45.656;11.302;2024-02-26T07:51:17;12.75;;;8.82;;
33160;SDS011;19522;45.656;11.302;2024-02-26T07:53:42;12.52;;;8.30;;
33160;SDS011;19522;45.656;11.302;2024-02-26T07:56:11;10.68;;;8.10;;
33160;SDS011;19522;45.656;11.302;2024-02-26T07:58:37;14.38;;;8.73;;
33160;SDS011;19522;45.656;11.302;2024-02-26T08:01:02;13.02;;;8.63;;
33160;SDS011;19522;45.656;11.302;2024-02-26T08:03:28;12.32;;;8.15;;
33160;SDS011;19522;45.656;11.302;2024-02-26T08:05:53;14.07;;;7.82;;
33160;SDS011;19522;45.656;11.302;2024-02-26T08:08:19;11.60;;;8.43;;
33160;SDS011;19522;45.656;11.302;2024-02-26T08:10:45;12.98;;;8.52;;
33160;SDS011;19522;45.656;11.302;2024-02-26T08:13:13;10.75;;;8.32;;
33160;SDS011;19522;45.656;11.302;2024-02-26T08:15:39;14.18;;;8.73;;
33160;SDS011;19522;45.656;11.302;2024-02-26T08:18:05;12.48;;;8.38;;
33160;SDS011;19522;45.656;11.302;2024-02-26T08:20:31;35.88;;;19.92;;
33160;SDS011;19522;45.656;11.302;2024-02-26T08:22:57;41.70;;;23.30;;
33160;SDS011;19522;45.656;11.302;2024-02-26T08:25:23;25.08;;;15.65;;
33160;SDS011;19522;45.656;11.302;2024-02-26T08:27:49;16.10;;;10.82;;
33160;SDS011;19522;45.656;11.302;2024-02-26T08:30:15;30.85;;;17.05;;
33160;SDS011;19522;45.656;11.302;2024-02-26T08:32:45;30.63;;;17.40;;
33160;SDS011;19522;45.656;11.302;2024-02-26T08:35:12;17.60;;;12.95;;
33160;SDS011;19522;45.656;11.302;2024-02-26T08:37:38;26.77;;;14.77;;
33160;SDS011;19522;45.656;11.302;2024-02-26T08:40:04;24.75;;;13.68;;
33160;SDS011;19522;45.656;11.302;2024-02-26T08:42:30;17.63;;;12.60;;
33160;SDS011;19522;45.656;11.302;2024-02-26T08:44:56;17.05;;;12.57;;
33160;SDS011;19522;45.656;11.302;2024-02-26T08:47:24;16.17;;;11.93;;
33160;SDS011;19522;45.656;11.302;2024-02-26T08:49:49;15.90;;;12.32;;
33160;SDS011;19522;45.656;11.302;2024-02-26T08:52:15;17.92;;;11.80;;
33160;SDS011;19522;45.656;11.302;2024-02-26T08:54:40;15.13;;;11.40;;
33160;SDS011;19522;45.656;11.302;2024-02-26T08:57:06;14.13;;;10.95;;
33160;SDS011;19522;45.656;11.302;2024-02-26T08:59:31;15.13;;;11.05;;
33160;SDS011;19522;45.656;11.302;2024-02-26T09:01:57;12.40;;;9.23;;
33160;SDS011;19522;45.656;11.302;2024-02-26T09:04:23;15.35;;;11.02;;
33160;SDS011;19522;45.656;11.302;2024-02-26T09:06:48;11.00;;;9.32;;
33160;SDS011;19522;45.656;11.302;2024-02-26T09:09:14;12.15;;;8.65;;
33160;SDS011;19522;45.656;11.302;2024-02-26T09:11:39;13.10;;;9.13;;
33160;SDS011;19522;45.656;11.302;2024-02-26T09:14:05;12.93;;;9.07;;
33160;SDS011;19522;45.656;11.302;2024-02-26T09:16:30;16.70;;;9.02;;
33160;SDS011;19522;45.656;11.302;2024-02-26T09:18:56;13.90;;;9.40;;
33160;SDS011;19522;45.656;11.302;2024-02-26T09:21:22;13.95;;;9.50;;
33160;SDS011;19522;45.656;11.302;2024-02-26T09:23:49;14.35;;;9.43;;
33160;SDS011;19522;45.656;11.302;2024-02-26T09:26:16;12.60;;;9.25;;
33160;SDS011;19522;45.656;11.302;2024-02-26T09:28:42;13.52;;;9.00;;
33160;SDS011;19522;45.656;11.302;2024-02-26T09:31:08;11.25;;;9.48;;
33160;SDS011;19522;45.656;11.302;2024-02-26T09:33:36;12.32;;;9.25;;
33160;SDS011;19522;45.656;11.302;2024-02-26T09:36:02;13.00;;;9.82;;
33160;SDS011;19522;45.656;11.302;2024-02-26T09:38:29;13.13;;;8.50;;
33160;SDS011;19522;45.656;11.302;2024-02-26T09:40:56;9.65;;;6.63;;
33160;SDS011;19522;45.656;11.302;2024-02-26T09:43:23;10.07;;;6.30;;
33160;SDS011;19522;45.656;11.302;2024-02-26T09:45:52;7.75;;;5.88;;
33160;SDS011;19522;45.656;11.302;2024-02-26T09:48:18;9.32;;;6.43;;
33160;SDS011;19522;45.656;11.302;2024-02-26T09:50:45;7.95;;;5.30;;
33160;SDS011;19522;45.656;11.302;2024-02-26T09:53:12;6.75;;;4.72;;
33160;SDS011;19522;45.656;11.302;2024-02-26T09:55:40;5.47;;;4.82;;
33160;SDS011;19522;45.656;11.302;2024-02-26T09:58:05;6.00;;;5.03;;
33160;SDS011;19522;45.656;11.302;2024-02-26T10:00:32;14.50;;;9.27;;
33160;SDS011;19522;45.656;11.302;2024-02-26T10:03:06;10.25;;;5.70;;
33160;SDS011;19522;45.656;11.302;2024-02-26T10:05:39;8.15;;;4.00;;
33160;SDS011;19522;45.656;11.302;2024-02-26T10:08:08;6.28;;;4.35;;
33160;SDS011;19522;45.656;11.302;2024-02-26T10:10:34;6.55;;;4.47;;
33160;SDS011;19522;45.656;11.302;2024-02-26T10:13:01;5.82;;;4.40;;
33160;SDS011;19522;45.656;11.302;2024-02-26T10:15:31;7.38;;;4.10;;
33160;SDS011;19522;45.656;11.302;2024-02-26T10:18:00;5.32;;;4.13;;
33160;SDS011;19522;45.656;11.302;2024-02-26T10:20:28;5.10;;;4.45;;
33160;SDS011;19522;45.656;11.302;2024-02-26T10:22:56;5.07;;;4.28;;
33160;SDS011;19522;45.656;11.302;2024-02-26T10:25:22;7.82;;;4.05;;
33160;SDS011;19522;45.656;11.302;2024-02-26T10:27:48;6.30;;;4.07;;
33160;SDS011;19522;45.656;11.302;2024-02-26T10:30:17;7.05;;;4.68;;
33160;SDS011;19522;45.656;11.302;2024-02-26T10:32:47;9.07;;;4.95;;
33160;SDS011;19522;45.656;11.302;2024-02-26T10:35:16;6.03;;;5.43;;
33160;SDS011;19522;45.656;11.302;2024-02-26T10:37:42;9.45;;;5.32;;
33160;SDS011;19522;45.656;11.302;2024-02-26T10:40:09;7.95;;;5.00;;
33160;SDS011;19522;45.656;11.302;2024-02-26T10:42:39;7.20;;;4.82;;
33160;SDS011;19522;45.656;11.302;2024-02-26T10:45:05;8.82;;;5.88;;
33160;SDS011;19522;45.656;11.302;2024-02-26T10:47:33;7.30;;;5.43;;
33160;SDS011;19522;45.656;11.302;2024-02-26T10:49:59;7.95;;;5.13;;
33160;SDS011;19522;45.656;11.302;2024-02-26T10:52:26;10.40;;;5.45;;
33160;SDS011;19522;45.656;11.302;2024-02-26T10:54:55;10.35;;;5.75;;
33160;SDS011;19522;45.656;11.302;2024-02-26T10:57:26;9.75;;;6.68;;
33160;SDS011;19522;45.656;11.302;2024-02-26T10:59:54;9.73;;;6.40;;
33160;SDS011;19522;45.656;11.302;2024-02-26T11:02:21;7.00;;;5.28;;
33160;SDS011;19522;45.656;11.302;2024-02-26T11:04:46;6.03;;;5.00;;
33160;SDS011;19522;45.656;11.302;2024-02-26T11:07:12;7.05;;;4.95;;
33160;SDS011;19522;45.656;11.302;2024-02-26T11:09:39;6.57;;;5.25;;
33160;SDS011;19522;45.656;11.302;2024-02-26T11:12:11;8.82;;;5.60;;
33160;SDS011;19522;45.656;11.302;2024-02-26T11:14:39;8.65;;;5.35;;
33160;SDS011;19522;45.656;11.302;2024-02-26T11:17:07;8.43;;;6.10;;
33160;SDS011;19522;45.656;11.302;2024-02-26T11:19:35;7.40;;;5.75;;
33160;SDS011;19522;45.656;11.302;2024-02-26T11:22:01;9.15;;;6.07;;
33160;SDS011;19522;45.656;11.302;2024-02-26T11:24:27;9.75;;;6.32;;
33160;SDS011;19522;45.656;11.302;2024-02-26T11:26:54;7.13;;;6.07;;
33160;SDS011;19522;45.656;11.302;2024-02-26T11:29:28;9.45;;;6.85;;
33160;SDS011;19522;45.656;11.302;2024-02-26T11:32:00;8.15;;;6.43;;
33160;SDS011;19522;45.656;11.302;2024-02-26T11:34:26;8.00;;;5.70;;
33160;SDS011;19522;45.656;11.302;2024-02-26T11:36:53;10.15;;;7.13;;
33160;SDS011;19522;45.656;11.302;2024-02-26T11:39:19;10.38;;;7.47;;
33160;SDS011;19522;45.656;11.302;2024-02-26T11:41:45;8.98;;;6.70;;
33160;SDS011;19522;45.656;11.302;2024-02-26T11:44:11;9.13;;;6.35;;
33160;SDS011;19522;45.656;11.302;2024-02-26T11:46:40;12.18;;;6.72;;
33160;SDS011;19522;45.656;11.302;2024-02-26T11:51:55;6.93;;;5.88;;
33160;SDS011;19522;45.656;11.302;2024-02-26T11:57:29;10.13;;;7.57;;
33160;SDS011;19522;45.656;11.302;2024-02-26T12:02:47;10.02;;;7.22;;
33160;SDS011;19522;45.656;11.302;2024-02-26T12:05:19;10.32;;;7.05;;
33160;SDS011;19522;45.656;11.302;2024-02-26T12:07:53;13.23;;;8.07;;
33160;SDS011;19522;45.656;11.302;2024-02-26T12:10:31;12.03;;;7.80;;
33160;SDS011;19522;45.656;11.302;2024-02-26T12:13:16;9.93;;;6.88;;
33160;SDS011;19522;45.656;11.302;2024-02-26T12:16:00;9.80;;;6.88;;
33160;SDS011;19522;45.656;11.302;2024-02-26T12:18:26;9.70;;;6.60;;
33160;SDS011;19522;45.656;11.302;2024-02-26T12:20:58;12.48;;;7.53;;
33160;SDS011;19522;45.656;11.302;2024-02-26T12:23:26;9.82;;;7.15;;
33160;SDS011;19522;45.656;11.302;2024-02-26T12:25:52;10.18;;;7.10;;
33160;SDS011;19522;45.656;11.302;2024-02-26T12:28:17;11.25;;;8.18;;
33160;SDS011;19522;45.656;11.302;2024-02-26T12:30:43;12.40;;;8.25;;
33160;SDS011;19522;45.656;11.302;2024-02-26T12:33:09;10.55;;;8.18;;
33160;SDS011;19522;45.656;11.302;2024-02-26T12:35:34;11.52;;;8.10;;
33160;SDS011;19522;45.656;11.302;2024-02-26T12:38:00;12.07;;;9.07;;
33160;SDS011;19522;45.656;11.302;2024-02-26T12:40:26;12.25;;;10.52;;
33160;SDS011;19522;45.656;11.302;2024-02-26T12:42:53;14.65;;;11.45;;
33160;SDS011;19522;45.656;11.302;2024-02-26T12:45:20;16.00;;;10.95;;
33160;SDS011;19522;45.656;11.302;2024-02-26T12:47:46;15.13;;;9.88;;
33160;SDS011;19522;45.656;11.302;2024-02-26T12:50:13;14.32;;;9.80;;
33160;SDS011;19522;45.656;11.302;2024-02-26T12:52:40;9.70;;;7.90;;
33160;SDS011;19522;45.656;11.302;2024-02-26T12:55:08;10.48;;;7.32;;
33160;SDS011;19522;45.656;11.302;2024-02-26T12:57:38;8.32;;;6.45;;
33160;SDS011;19522;45.656;11.302;2024-02-26T13:00:07;7.60;;;6.43;;
33160;SDS011;19522;45.656;11.302;2024-02-26T13:02:36;9.55;;;6.95;;
33160;SDS011;19522;45.656;11.302;2024-02-26T13:05:03;9.60;;;6.57;;
33160;SDS011;19522;45.656;11.302;2024-02-26T13:07:29;8.18;;;5.95;;
33160;SDS011;19522;45.656;11.302;2024-02-26T13:09:55;8.07;;;6.00;;
33160;SDS011;19522;45.656;11.302;2024-02-26T13:12:21;10.35;;;6.25;;
33160;SDS011;19522;45.656;11.302;2024-02-26T13:14:48;7.43;;;5.45;;
33160;SDS011;19522;45.656;11.302;2024-02-26T13:17:24;7.78;;;4.53;;
33160;SDS011;19522;45.656;11.302;2024-02-26T13:19:53;7.05;;;5.47;;
33160;SDS011;19522;45.656;11.302;2024-02-26T13:22:20;7.95;;;5.57;;
33160;SDS011;19522;45.656;11.302;2024-02-26T13:24:53;5.88;;;4.60;;
33160;SDS011;19522;45.656;11.302;2024-02-26T13:27:25;5.13;;;3.92;;
33160;SDS011;19522;45.656;11.302;2024-02-26T13:30:04;5.93;;;4.18;;
33160;SDS011;19522;45.656;11.302;2024-02-26T13:32:38;5.68;;;3.90;;
33160;SDS011;19522;45.656;11.302;2024-02-26T13:35:05;5.07;;;4.20;;
33160;SDS011;19522;45.656;11.302;2024-02-26T13:37:37;6.65;;;4.80;;
33160;SDS011;19522;45.656;11.302;2024-02-26T13:42:36;11.80;;;5.65;;
33160;SDS011;19522;45.656;11.302;2024-02-26T13:45:03;6.28;;;4.35;;
33160;SDS011;19522;45.656;11.302;2024-02-26T13:47:32;7.25;;;3.83;;
33160;SDS011;19522;45.656;11.302;2024-02-26T13:50:01;5.45;;;3.53;;
33160;SDS011;19522;45.656;11.302;2024-02-26T13:52:29;7.07;;;4.20;;
33160;SDS011;19522;45.656;11.302;2024-02-26T13:54:57;5.03;;;3.20;;
33160;SDS011;19522;45.656;11.302;2024-02-26T13:57:23;5.18;;;3.20;;
33160;SDS011;19522;45.656;11.302;2024-02-26T13:59:49;8.27;;;4.50;;
33160;SDS011;19522;45.656;11.302;2024-02-26T14:02:15;4.00;;;3.03;;
33160;SDS011;19522;45.656;11.302;2024-02-26T14:04:45;8.82;;;3.30;;
33160;SDS011;19522;45.656;11.302;2024-02-26T14:07:15;4.53;;;2.47;;
33160;SDS011;19522;45.656;11.302;2024-02-26T14:09:44;3.45;;;2.45;;
33160;SDS011;19522;45.656;11.302;2024-02-26T14:12:10;5.43;;;3.08;;
33160;SDS011;19522;45.656;11.302;2024-02-26T14:14:36;5.82;;;2.45;;
33160;SDS011;19522;45.656;11.302;2024-02-26T14:17:04;4.28;;;2.80;;
33160;SDS011;19522;45.656;11.302;2024-02-26T14:19:30;6.28;;;3.90;;
33160;SDS011;19522;45.656;11.302;2024-02-26T14:21:55;9.73;;;5.47;;
33160;SDS011;19522;45.656;11.302;2024-02-26T14:24:26;8.25;;;4.50;;
33160;SDS011;19522;45.656;11.302;2024-02-26T14:26:52;3.42;;;2.88;;
33160;SDS011;19522;45.656;11.302;2024-02-26T14:29:21;4.50;;;2.75;;
33160;SDS011;19522;45.656;11.302;2024-02-26T14:31:47;6.20;;;3.60;;
33160;SDS011;19522;45.656;11.302;2024-02-26T14:34:12;3.67;;;2.72;;